createdAt,value
2023-08-03T00:04:48.658Z,100.00
2023-08-03T00:09:50.581Z,100.00
2023-08-03T00:14:52.376Z,100.00
2023-08-03T00:19:54.244Z,100.00
2023-08-03T00:24:56.041Z,100.00
2023-08-03T00:29:58.024Z,100.00
2023-08-03T00:34:59.756Z,100.00
2023-08-03T00:40:01.645Z,100.00
2023-08-03T00:45:04.508Z,100.00
2023-08-03T00:50:07.915Z,100.00
2023-08-03T00:55:09.865Z,100.00
2023-08-03T01:00:11.940Z,100.00
2023-08-03T01:05:13.886Z,100.00
2023-08-03T01:10:15.824Z,100.00
2023-08-03T01:15:17.576Z,100.00
2023-08-03T01:20:20.278Z,100.00
2023-08-03T01:25:22.229Z,100.00
2023-08-03T01:30:24.057Z,100.00
2023-08-03T01:35:26.019Z,100.00
2023-08-03T01:40:28.338Z,100.00
2023-08-03T01:45:30.084Z,100.00
2023-08-03T01:50:31.977Z,100.00
2023-08-03T01:55:33.670Z,100.00
2023-08-03T02:00:35.563Z,100.00
2023-08-03T02:05:37.325Z,100.00
2023-08-03T02:10:39.246Z,100.00
2023-08-03T02:15:40.932Z,100.00
2023-08-03T02:20:42.795Z,100.00
2023-08-03T02:25:44.529Z,100.00
2023-08-03T02:30:46.557Z,100.00
2023-08-03T02:35:48.528Z,100.00
2023-08-03T02:40:50.533Z,100.00
2023-08-03T02:45:52.961Z,100.00
2023-08-03T02:50:55.201Z,100.00
2023-08-03T02:55:57.201Z,100.00
2023-08-03T03:00:59.173Z,92.93
2023-08-03T03:06:01.240Z,85.43
2023-08-03T03:11:03.233Z,78.45
2023-08-03T03:16:05.318Z,73.36
2023-08-03T03:21:07.337Z,70.06
2023-08-03T03:26:09.338Z,69.98
2023-08-03T03:31:11.257Z,68.93
2023-08-03T03:36:13.230Z,64.36
2023-08-03T03:41:15.099Z,66.57
2023-08-03T03:46:17.054Z,70.70
2023-08-03T03:51:18.972Z,74.35
2023-08-03T03:56:20.919Z,72.11
2023-08-03T04:01:23.063Z,72.16
2023-08-03T04:06:25.265Z,67.98
2023-08-03T04:11:27.314Z,61.74
2023-08-03T04:16:29.320Z,56.70
2023-08-03T04:21:31.289Z,50.53
2023-08-03T04:26:33.290Z,46.32
2023-08-03T04:31:35.295Z,42.62
2023-08-03T04:36:37.316Z,37.65
2023-08-03T04:41:39.288Z,35.64
2023-08-03T04:46:41.252Z,34.34
2023-08-03T04:51:43.530Z,39.85
2023-08-03T04:56:45.707Z,36.80
2023-08-03T05:01:48.152Z,32.89
2023-08-03T05:06:50.555Z,31.39
2023-08-03T05:11:52.600Z,29.55
2023-08-03T05:16:54.583Z,28.94
2023-08-03T05:21:56.626Z,28.40
2023-08-03T05:26:58.554Z,27.36
2023-08-03T05:32:00.660Z,27.72
2023-08-03T05:37:02.669Z,27.31
2023-08-03T05:42:05.968Z,28.02
2023-08-03T05:47:10.557Z,27.56
2023-08-03T05:52:12.562Z,26.59
2023-08-03T05:57:14.558Z,26.10
2023-08-03T06:02:34.906Z,26.17
2023-08-03T06:07:36.916Z,26.72
2023-08-03T06:12:41.040Z,25.27
2023-08-03T06:17:43.480Z,25.46
2023-08-03T06:22:45.522Z,26.58
2023-08-03T06:27:47.486Z,24.43
2023-08-03T06:32:49.530Z,25.16
2023-08-03T06:37:53.175Z,24.78
2023-08-03T06:42:55.423Z,25.00
2023-08-03T06:47:57.440Z,23.29
2023-08-03T06:53:00.002Z,23.18
2023-08-03T06:58:02.132Z,26.44
2023-08-03T07:03:04.306Z,30.09
2023-08-03T07:08:06.373Z,34.59
2023-08-03T07:13:08.378Z,36.89
2023-08-03T07:18:10.545Z,38.11
2023-08-03T07:23:14.557Z,38.86
2023-08-03T07:28:16.507Z,38.58
2023-08-03T07:33:18.425Z,37.98
2023-08-03T07:38:20.290Z,38.47
2023-08-03T07:43:22.355Z,37.65
2023-08-03T07:48:24.372Z,38.06
2023-08-03T07:53:26.332Z,35.44
2023-08-03T07:58:28.229Z,29.71
2023-08-03T08:03:30.238Z,32.50
2023-08-03T08:08:32.286Z,35.95
2023-08-03T08:13:34.229Z,37.49
2023-08-03T08:18:36.506Z,38.39
2023-08-03T08:23:39.157Z,39.51
2023-08-03T08:28:45.539Z,38.99
2023-08-03T08:33:55.138Z,40.71
2023-08-03T08:38:57.424Z,41.33
2023-08-03T08:43:59.377Z,41.44
2023-08-03T08:49:01.523Z,41.98
2023-08-03T09:09:18.856Z,41.78
2023-08-03T09:14:20.831Z,41.93
2023-08-03T09:19:39.683Z,42.38
2023-08-03T09:24:42.028Z,42.97
2023-08-03T09:29:44.499Z,42.24
2023-08-03T09:34:46.642Z,42.19
2023-08-03T09:39:54.925Z,43.61
2023-08-03T09:44:56.932Z,43.90
2023-08-03T09:49:58.993Z,44.39
2023-08-03T09:55:10.376Z,43.82
2023-08-03T10:00:13.430Z,42.94
2023-08-03T10:05:21.124Z,43.06
2023-08-03T10:10:23.812Z,43.51
2023-08-03T10:15:25.772Z,42.37
2023-08-03T10:20:27.822Z,41.73
2023-08-03T10:25:29.780Z,43.09
2023-08-03T10:31:06.324Z,42.74
2023-08-03T10:36:08.276Z,42.20
2023-08-03T10:41:23.217Z,41.58
2023-08-03T10:46:31.584Z,41.43
2023-08-03T10:51:33.592Z,41.31
2023-08-03T10:56:38.241Z,40.58
2023-08-03T11:01:40.222Z,40.76
2023-08-03T11:06:46.358Z,41.02
2023-08-03T11:11:49.775Z,42.01
2023-08-03T11:16:51.806Z,41.50
2023-08-03T11:21:53.722Z,42.77
2023-08-03T11:26:55.514Z,42.25
2023-08-03T11:31:57.513Z,42.86
2023-08-03T11:36:59.507Z,43.66
2023-08-03T11:42:01.663Z,44.33
2023-08-03T11:47:04.975Z,44.17
2023-08-03T11:52:07.168Z,43.71
2023-08-03T11:57:09.262Z,44.26
2023-08-03T12:02:11.289Z,44.93
2023-08-03T12:12:18.917Z,44.83
2023-08-03T12:17:20.822Z,44.94
2023-08-03T12:22:22.746Z,45.38
2023-08-03T12:27:24.757Z,45.55
2023-08-03T12:32:27.012Z,45.29
2023-08-03T12:37:28.921Z,46.25
2023-08-03T12:42:30.886Z,47.68
2023-08-03T12:47:36.274Z,48.96
2023-08-03T12:52:38.924Z,54.22
2023-08-03T12:57:40.782Z,57.99
2023-08-03T13:02:42.801Z,66.69
2023-08-03T13:07:44.980Z,78.37
2023-08-03T13:12:47.101Z,89.36
2023-08-03T13:17:49.132Z,91.79
2023-08-03T13:22:51.368Z,91.59
2023-08-03T13:27:53.259Z,92.67
2023-08-03T13:32:55.358Z,91.26
2023-08-03T13:37:57.432Z,89.72
2023-08-03T13:42:59.499Z,87.85
2023-08-03T13:48:01.885Z,84.66
2023-08-03T13:53:04.154Z,79.45
2023-08-03T13:58:08.030Z,79.14
2023-08-03T14:03:11.650Z,80.52
2023-08-03T14:08:13.958Z,78.74
2023-08-03T14:13:16.090Z,78.28
2023-08-03T14:23:22.910Z,79.95
2023-08-03T14:33:29.682Z,77.92
2023-08-03T14:38:31.686Z,76.47
2023-08-03T14:43:33.695Z,74.92
2023-08-03T14:48:35.792Z,71.60
2023-08-03T14:53:37.918Z,71.02
2023-08-03T15:03:46.828Z,70.87
2023-08-03T15:08:48.976Z,70.31
2023-08-03T15:13:59.013Z,69.10
2023-08-03T15:19:10.969Z,67.93
2023-08-03T15:24:13.650Z,65.91
2023-08-03T15:29:25.231Z,64.25
2023-08-03T15:34:34.541Z,62.77
2023-08-03T15:39:43.870Z,60.74
2023-08-03T15:44:49.215Z,59.34
2023-08-03T15:49:56.967Z,58.17
2023-08-03T16:00:24.630Z,56.09
2023-08-03T16:05:26.744Z,56.03
2023-08-03T16:10:28.973Z,55.66
2023-08-03T16:15:31.654Z,56.11
2023-08-03T16:20:33.731Z,56.45
2023-08-03T16:25:35.773Z,57.30
2023-08-03T16:30:37.755Z,57.43
2023-08-03T16:35:39.773Z,58.66
2023-08-03T16:40:41.833Z,58.57
2023-08-03T16:45:43.876Z,59.18
2023-08-03T16:50:45.809Z,59.15
2023-08-03T16:55:47.759Z,59.67
2023-08-03T17:00:50.629Z,59.97
2023-08-03T17:05:55.764Z,60.45
2023-08-03T17:10:57.704Z,61.05
2023-08-03T17:15:59.728Z,61.28
2023-08-03T17:21:01.790Z,61.30
2023-08-03T17:26:03.959Z,62.11
2023-08-03T17:31:06.003Z,61.81
2023-08-03T17:36:11.713Z,62.10
2023-08-03T17:41:13.674Z,62.69
2023-08-03T17:46:15.543Z,62.62
2023-08-03T17:51:17.480Z,63.93
2023-08-03T17:56:19.854Z,64.44
2023-08-03T18:01:22.964Z,64.62
2023-08-03T18:06:25.690Z,65.20
2023-08-03T18:11:28.084Z,65.47
2023-08-03T18:16:30.199Z,66.09
2023-08-03T18:21:32.260Z,66.97
2023-08-03T18:26:34.267Z,67.53
2023-08-03T18:31:36.526Z,68.29
2023-08-03T18:36:38.490Z,68.93
2023-08-03T18:41:40.473Z,69.36
2023-08-03T18:46:42.467Z,70.17
2023-08-03T18:51:44.450Z,70.31
2023-08-03T18:56:46.551Z,70.53
2023-08-03T19:01:48.643Z,70.67
2023-08-03T19:06:50.644Z,71.03
2023-08-03T19:11:52.580Z,71.59
2023-08-03T19:16:54.451Z,72.13
2023-08-03T19:21:56.412Z,72.51
2023-08-03T19:26:58.342Z,72.92
2023-08-03T19:32:00.293Z,72.71
2023-08-03T19:37:02.212Z,72.95
2023-08-03T19:42:04.268Z,73.27
2023-08-03T19:47:06.682Z,73.49
2023-08-03T20:07:40.116Z,74.83
2023-08-03T20:12:42.267Z,75.20
2023-08-03T20:17:44.283Z,75.75
2023-08-03T20:22:46.393Z,76.11
2023-08-03T20:27:53.626Z,76.44
2023-08-03T20:32:55.747Z,76.47
2023-08-03T20:53:12.427Z,77.29
2023-08-03T21:03:18.177Z,77.44
2023-08-03T21:08:20.234Z,77.48
2023-08-03T21:13:22.405Z,77.37
2023-08-03T21:23:29.320Z,77.80
2023-08-03T21:28:31.373Z,78.17
2023-08-03T21:33:33.411Z,78.21
2023-08-03T21:38:35.596Z,78.17
2023-08-03T21:43:37.623Z,77.96
2023-08-03T21:48:39.638Z,78.15
2023-08-03T21:53:41.697Z,79.26
2023-08-03T21:58:44.109Z,79.65
2023-08-03T22:03:46.185Z,79.92
2023-08-03T22:08:49.566Z,79.94
2023-08-03T22:13:51.612Z,80.03
2023-08-03T22:18:53.719Z,81.81
2023-08-03T22:23:55.665Z,81.65
2023-08-03T22:28:57.678Z,81.07
2023-08-03T22:33:59.634Z,80.92
2023-08-03T22:39:01.639Z,81.37
2023-08-03T22:44:03.729Z,80.90
2023-08-03T22:49:05.849Z,80.88
2023-08-03T22:54:07.833Z,80.65
2023-08-03T22:59:09.849Z,80.78
2023-08-03T23:04:12.066Z,81.30
2023-08-03T23:09:14.092Z,81.36
2023-08-03T23:14:16.149Z,81.62
2023-08-03T23:19:18.163Z,82.00
2023-08-03T23:24:20.250Z,82.13
2023-08-03T23:29:22.226Z,82.58
2023-08-03T23:34:24.268Z,82.96
2023-08-03T23:39:26.254Z,82.78
2023-08-03T23:44:28.242Z,83.25
2023-08-03T23:49:30.221Z,83.28
2023-08-03T23:54:32.191Z,82.88
2023-08-03T23:59:34.249Z,82.49
